createdAt,value
2023-10-03T00:00:35.631Z,101239.16
2023-10-03T00:03:37.798Z,101233.09
2023-10-03T00:06:40.235Z,101226.25
2023-10-03T00:09:42.851Z,101242.66
2023-10-03T00:12:49.233Z,101236.50
2023-10-03T00:15:51.255Z,101236.44
2023-10-03T00:18:53.405Z,101218.88
2023-10-03T00:21:55.217Z,101232.84
2023-10-03T00:24:57.106Z,101185.03
2023-10-03T00:28:02.344Z,101216.34
2023-10-03T00:31:10.683Z,101234.53
2023-10-03T00:34:14.156Z,101231.06
2023-10-03T00:37:16.594Z,101234.56
2023-10-03T00:40:22.921Z,101234.56
2023-10-03T00:43:25.972Z,101232.00
2023-10-03T00:46:31.330Z,101195.47
2023-10-03T00:49:33.313Z,101217.03
2023-10-03T00:52:36.068Z,101214.28
2023-10-03T00:55:39.580Z,101226.50
2023-10-03T00:58:42.665Z,101200.25
2023-10-03T01:01:47.718Z,101217.63
2023-10-03T01:04:50.854Z,101218.47
2023-10-03T01:07:52.972Z,101222.03
2023-10-03T01:10:56.718Z,101218.56
2023-10-03T01:14:00.900Z,101198.47
2023-10-03T01:17:04.675Z,101200.22
2023-10-03T01:20:18.704Z,101191.47
2023-10-03T01:23:22.112Z,101213.25
2023-10-03T01:26:26.190Z,101194.91
2023-10-03T01:29:28.242Z,101189.53
2023-10-03T01:32:33.349Z,101197.41
2023-10-03T01:35:35.717Z,101175.66
2023-10-03T01:38:37.676Z,101147.03
2023-10-03T01:41:39.731Z,101177.25
2023-10-03T01:44:41.889Z,101131.25
2023-10-03T01:47:49.118Z,101177.97
2023-10-03T01:50:52.052Z,101175.41
2023-10-03T01:53:57.371Z,101165.81
2023-10-03T01:57:01.668Z,101178.78
2023-10-03T02:00:07.366Z,101180.63
2023-10-03T02:03:14.977Z,101164.06
2023-10-03T02:06:17.752Z,101174.53
2023-10-03T02:09:22.424Z,101157.91
2023-10-03T02:12:24.563Z,101169.28
2023-10-03T02:15:26.692Z,101172.66
2023-10-03T02:18:28.675Z,101168.22
2023-10-03T02:21:30.565Z,101171.66
2023-10-03T02:24:33.661Z,101126.38
2023-10-03T02:27:35.548Z,101157.59
2023-10-03T02:35:40.588Z,101142.03
2023-10-03T02:38:42.971Z,101175.84
2023-10-03T02:41:45.130Z,101147.84
2023-10-03T02:44:48.023Z,101147.84
2023-10-03T02:47:57.575Z,101114.66
2023-10-03T02:51:03.380Z,101160.00
2023-10-03T02:54:05.468Z,101158.09
2023-10-03T02:57:07.302Z,101155.53
2023-10-03T03:00:16.460Z,101150.16
2023-10-03T03:03:19.960Z,101152.72
2023-10-03T03:06:24.045Z,101175.28
2023-10-03T03:09:30.747Z,101163.91
2023-10-03T03:12:36.707Z,101170.69
2023-10-03T03:15:38.718Z,101169.00
2023-10-03T03:18:44.847Z,101163.69
2023-10-03T03:21:47.643Z,101170.47
2023-10-03T03:24:53.023Z,101167.84
2023-10-03T03:27:58.937Z,101133.00
2023-10-03T03:31:02.756Z,101172.03
2023-10-03T03:34:04.737Z,101162.31
2023-10-03T03:37:25.035Z,101147.53
2023-10-03T03:40:35.131Z,101158.03
2023-10-03T03:43:37.675Z,101152.03
2023-10-03T03:46:41.923Z,101161.34
2023-10-03T03:49:44.801Z,101159.59
2023-10-03T03:52:46.761Z,101160.41
2023-10-03T03:55:50.784Z,101141.13
2023-10-03T03:58:52.845Z,101130.78
2023-10-03T04:01:56.588Z,101141.09
2023-10-03T04:04:58.546Z,101150.63
2023-10-03T04:08:00.811Z,101129.63
2023-10-03T04:11:08.470Z,101147.13
2023-10-03T04:14:10.346Z,101148.06
2023-10-03T04:17:16.897Z,101144.53
2023-10-03T04:20:21.634Z,101148.06
2023-10-03T04:23:23.497Z,101149.75
2023-10-03T04:26:29.166Z,101135.91
2023-10-03T04:29:31.472Z,101149.84
2023-10-03T04:32:33.698Z,101162.03
2023-10-03T04:35:36.702Z,101165.53
2023-10-03T04:38:38.785Z,101175.16
2023-10-03T04:41:45.147Z,101163.88
2023-10-03T04:44:47.478Z,101172.50
2023-10-03T04:47:50.090Z,101183.97
2023-10-03T04:50:52.342Z,101168.19
2023-10-03T04:53:54.436Z,101166.25
2023-10-03T04:56:56.429Z,101170.59
2023-10-03T04:59:58.488Z,101152.19
2023-10-03T05:03:00.570Z,101159.19
2023-10-03T05:06:03.634Z,101149.78
2023-10-03T05:09:06.292Z,101110.63
2023-10-03T05:12:08.335Z,101166.25
2023-10-03T05:15:10.498Z,101162.66
2023-10-03T05:18:13.151Z,101156.50
2023-10-03T05:21:15.124Z,101183.59
2023-10-03T05:24:17.753Z,101178.25
2023-10-03T05:27:19.850Z,101193.09
2023-10-03T05:30:22.541Z,101179.78
2023-10-03T05:33:24.425Z,101188.50
2023-10-03T05:36:26.356Z,101176.97
2023-10-03T05:39:28.297Z,101172.69
2023-10-03T05:42:30.144Z,101185.72
2023-10-03T05:45:32.124Z,101172.53
2023-10-03T05:48:36.078Z,101177.56
2023-10-03T05:51:37.979Z,101189.84
2023-10-03T05:54:39.841Z,101194.25
2023-10-03T05:57:44.245Z,101147.09
2023-10-03T06:00:46.330Z,101180.91
2023-10-03T06:03:48.521Z,101181.69
2023-10-03T06:06:51.162Z,101185.03
2023-10-03T06:09:55.069Z,101184.84
2023-10-03T06:12:56.944Z,101187.38
2023-10-03T06:16:01.799Z,101189.09
2023-10-03T06:19:05.034Z,101181.97
2023-10-03T06:22:09.585Z,101187.00
2023-10-03T06:25:12.233Z,101192.06
2023-10-03T06:28:17.585Z,101185.94
2023-10-03T06:31:19.685Z,101192.59
2023-10-03T06:34:21.834Z,101191.53
2023-10-03T06:37:25.384Z,101193.19
2023-10-03T06:40:28.704Z,101194.69
2023-10-03T06:43:30.510Z,101206.94
2023-10-03T06:46:32.531Z,101206.00
2023-10-03T06:49:34.464Z,101201.63
2023-10-03T06:52:36.622Z,101206.09
2023-10-03T06:55:38.484Z,101194.69
2023-10-03T06:58:40.404Z,101210.16
2023-10-03T07:01:42.462Z,101219.06
2023-10-03T07:04:46.181Z,101209.38
2023-10-03T07:07:48.993Z,101218.00
2023-10-03T07:10:51.634Z,101198.59
2023-10-03T07:13:53.716Z,101210.66
2023-10-03T07:16:56.441Z,101212.22
2023-10-03T07:19:59.648Z,101220.78
2023-10-03T07:23:01.728Z,101231.22
2023-10-03T07:26:04.581Z,101212.69
2023-10-03T07:29:07.390Z,101215.28
2023-10-03T07:32:13.972Z,101225.84
2023-10-03T07:35:18.351Z,101220.63
2023-10-03T07:38:20.177Z,101230.31
2023-10-03T07:41:23.213Z,101228.56
2023-10-03T07:44:27.290Z,101226.00
2023-10-03T07:47:29.551Z,101194.28
2023-10-03T07:50:32.348Z,101227.72
2023-10-03T07:53:37.829Z,101172.69
2023-10-03T07:56:43.822Z,101220.84
2023-10-03T07:59:45.816Z,101231.03
2023-10-03T08:02:51.226Z,101212.53
2023-10-03T08:05:58.399Z,101220.00
2023-10-03T08:09:01.258Z,101213.44
2023-10-03T08:12:13.275Z,101226.41
2023-10-03T08:15:18.803Z,101211.56
2023-10-03T08:18:20.918Z,101214.75
2023-10-03T08:21:23.018Z,101213.53
2023-10-03T08:24:26.694Z,101222.66
2023-10-03T08:27:31.625Z,101239.47
2023-10-03T08:30:36.617Z,101226.97
2023-10-03T08:33:38.781Z,101226.50
2023-10-03T08:36:40.733Z,101224.69
2023-10-03T08:39:42.961Z,101207.78
2023-10-03T08:42:45.540Z,101214.06
2023-10-03T08:45:54.268Z,101207.50
2023-10-03T08:49:02.448Z,101193.84
2023-10-03T08:52:07.393Z,101200.88
2023-10-03T08:55:16.000Z,101209.97
2023-10-03T08:58:27.500Z,101177.66
2023-10-03T09:01:34.848Z,101213.72
2023-10-03T09:04:40.657Z,101205.47
2023-10-03T09:07:45.804Z,101188.16
2023-10-03T09:10:54.384Z,101191.03
2023-10-03T09:14:01.469Z,101206.25
2023-10-03T09:17:05.195Z,101191.94
2023-10-03T09:20:10.194Z,101192.19
2023-10-03T09:23:16.252Z,101200.56
2023-10-03T09:26:20.796Z,101183.06
2023-10-03T09:29:33.248Z,101198.66
2023-10-03T09:32:41.104Z,101187.41
2023-10-03T09:36:04.011Z,101190.53
2023-10-03T09:39:08.746Z,101196.75
2023-10-03T09:42:17.111Z,101185.91
2023-10-03T09:45:26.084Z,101191.38
2023-10-03T09:48:28.550Z,101189.88
2023-10-03T09:51:52.798Z,101177.13
2023-10-03T09:54:55.840Z,101170.97
2023-10-03T09:58:01.307Z,101170.19
2023-10-03T10:01:04.304Z,101169.28
2023-10-03T10:04:11.348Z,101141.47
2023-10-03T10:07:51.933Z,101168.66
2023-10-03T10:11:10.791Z,101154.22
2023-10-03T10:14:13.883Z,101158.91
2023-10-03T10:17:15.955Z,101157.19
2023-10-03T10:20:19.169Z,101151.13
2023-10-03T10:23:21.921Z,101155.16
2023-10-03T10:26:33.342Z,101132.66
2023-10-03T10:29:59.954Z,101139.84
2023-10-03T10:33:17.852Z,101127.31
2023-10-03T10:36:20.535Z,101130.47
2023-10-03T10:39:25.428Z,101124.75
2023-10-03T10:42:28.139Z,101115.16
2023-10-03T10:45:39.986Z,101115.31
2023-10-03T10:48:42.855Z,101065.63
2023-10-03T10:51:55.794Z,101094.38
2023-10-03T10:54:58.483Z,101074.94
2023-10-03T10:58:14.372Z,101093.09
2023-10-03T11:01:18.102Z,101089.28
2023-10-03T11:04:24.909Z,101056.31
2023-10-03T11:07:28.373Z,101079.25
2023-10-03T11:10:35.701Z,101073.47
2023-10-03T11:13:59.823Z,101072.81
2023-10-03T11:17:06.002Z,101075.34
2023-10-03T11:20:10.230Z,101057.31
2023-10-03T11:23:19.566Z,101061.56
2023-10-03T11:26:21.450Z,101051.72
2023-10-03T11:29:41.985Z,100995.84
2023-10-03T11:32:44.691Z,101020.88
2023-10-03T11:35:53.897Z,101007.16
2023-10-03T11:38:57.523Z,101016.16
2023-10-03T11:42:02.110Z,100996.16
2023-10-03T11:45:04.558Z,101037.34
2023-10-03T11:48:24.136Z,101011.97
2023-10-03T11:51:27.139Z,100994.06
2023-10-03T11:54:29.073Z,101013.41
2023-10-03T11:57:32.045Z,100993.31
2023-10-03T12:00:35.050Z,100986.31
2023-10-03T12:03:39.304Z,100997.38
2023-10-03T12:06:42.988Z,100997.19
2023-10-03T12:09:46.670Z,100997.75
2023-10-03T12:12:48.574Z,100992.00
2023-10-03T12:15:51.202Z,100986.47
2023-10-03T12:18:53.216Z,100980.97
2023-10-03T12:21:55.556Z,100979.78
2023-10-03T12:24:58.297Z,100986.28
2023-10-03T12:28:00.404Z,100961.97
2023-10-03T12:31:02.271Z,100969.91
2023-10-03T12:34:04.113Z,100959.06
2023-10-03T12:37:12.728Z,100959.13
2023-10-03T12:40:19.741Z,100936.94
2023-10-03T12:43:22.874Z,100946.44
2023-10-03T12:46:24.820Z,100941.66
2023-10-03T12:49:27.400Z,100939.44
2023-10-03T12:52:32.271Z,100943.75
2023-10-03T12:55:35.245Z,100887.28
2023-10-03T12:58:39.198Z,100908.38
2023-10-03T13:01:41.301Z,100937.22
2023-10-03T13:04:43.344Z,100939.00
2023-10-03T13:07:49.751Z,100905.47
2023-10-03T13:10:51.883Z,100874.28
2023-10-03T13:13:53.762Z,100900.56
2023-10-03T13:17:00.713Z,100904.66
2023-10-03T13:20:06.397Z,100921.38
2023-10-03T13:23:08.492Z,100916.66
2023-10-03T13:26:12.039Z,100913.44
2023-10-03T13:29:13.872Z,100916.69
2023-10-03T13:32:17.434Z,100856.06
2023-10-03T13:35:22.189Z,100901.88
2023-10-03T13:38:24.639Z,100893.72
2023-10-03T13:41:29.070Z,100870.63
2023-10-03T13:44:30.973Z,100887.41
2023-10-03T13:47:33.204Z,100882.16
2023-10-03T13:50:36.946Z,100843.03
2023-10-03T13:53:39.612Z,100868.63
2023-10-03T13:56:41.689Z,100862.41
2023-10-03T13:59:47.173Z,100828.13
2023-10-03T14:02:52.037Z,100860.00
2023-10-03T14:05:55.451Z,100850.28
2023-10-03T14:08:58.224Z,100854.78
2023-10-03T14:12:06.612Z,100845.25
2023-10-03T14:15:13.125Z,100856.25
2023-10-03T14:18:15.098Z,100838.09
2023-10-03T14:21:18.971Z,100803.69
2023-10-03T14:24:23.534Z,100820.13
2023-10-03T14:27:25.379Z,100832.19
2023-10-03T14:30:27.241Z,100843.09
2023-10-03T14:33:32.986Z,100803.38
2023-10-03T14:36:35.027Z,100840.97
2023-10-03T14:39:36.889Z,100783.00
2023-10-03T14:42:39.493Z,100809.34
2023-10-03T14:45:41.683Z,100822.03
2023-10-03T14:48:46.543Z,100673.78
2023-10-03T14:51:49.428Z,100818.25
2023-10-03T14:54:52.459Z,100806.97
2023-10-03T14:57:55.338Z,100827.31
2023-10-03T15:01:06.271Z,100817.88
2023-10-03T15:04:11.078Z,100792.06
2023-10-03T15:07:13.209Z,100801.06
2023-10-03T15:10:15.791Z,100770.88
2023-10-03T15:13:17.831Z,100811.97
2023-10-03T15:16:19.918Z,100818.56
2023-10-03T15:19:21.901Z,100806.53
2023-10-03T15:22:23.911Z,100806.06
2023-10-03T15:25:28.337Z,100794.56
2023-10-03T15:28:33.327Z,100803.13
2023-10-03T15:31:36.586Z,100785.19
2023-10-03T15:34:39.696Z,100775.03
2023-10-03T15:37:41.672Z,100804.09
2023-10-03T15:40:46.185Z,100788.75
2023-10-03T15:43:48.108Z,100782.84
2023-10-03T15:46:51.142Z,100753.16
2023-10-03T15:49:53.120Z,100786.19
2023-10-03T15:52:55.429Z,100796.16
2023-10-03T15:55:59.720Z,100752.63
2023-10-03T15:59:02.795Z,100786.03
2023-10-03T16:02:05.723Z,100789.66
2023-10-03T16:05:08.543Z,100783.41
2023-10-03T16:08:11.367Z,100800.91
2023-10-03T16:11:13.992Z,100802.56
2023-10-03T16:14:17.972Z,100792.94
2023-10-03T16:17:20.098Z,100785.00
2023-10-03T16:20:22.899Z,100790.44
2023-10-03T16:23:24.809Z,100748.63
2023-10-03T16:26:27.729Z,100813.22
2023-10-03T16:29:31.053Z,100793.34
2023-10-03T16:32:35.289Z,100792.88
2023-10-03T16:35:38.210Z,100781.13
2023-10-03T16:41:43.400Z,100757.69
2023-10-03T16:44:46.916Z,100798.59
2023-10-03T16:47:51.053Z,100805.25
2023-10-03T16:50:53.002Z,100791.75
2023-10-03T16:53:54.900Z,100788.88
2023-10-03T16:56:58.168Z,100772.69
2023-10-03T17:00:00.868Z,100788.28
2023-10-03T17:03:02.901Z,100759.06
2023-10-03T17:06:05.119Z,100785.06
2023-10-03T17:09:09.565Z,100783.13
2023-10-03T17:12:12.466Z,100778.13
2023-10-03T17:15:16.582Z,100758.34
2023-10-03T17:18:18.653Z,100759.28
2023-10-03T17:21:21.989Z,100760.84
2023-10-03T17:24:25.920Z,100768.47
2023-10-03T17:27:27.844Z,100716.94
2023-10-03T17:30:29.697Z,100780.19
2023-10-03T17:33:31.722Z,100781.22
2023-10-03T17:36:33.629Z,100777.75
2023-10-03T17:39:35.817Z,100774.47
2023-10-03T17:42:37.607Z,100786.88
2023-10-03T17:45:43.700Z,100770.19
2023-10-03T17:48:45.565Z,100772.06
2023-10-03T17:51:48.985Z,100768.81
2023-10-03T17:54:50.844Z,100758.56
2023-10-03T17:57:52.863Z,100756.75
2023-10-03T18:00:54.866Z,100752.34
2023-10-03T18:03:58.068Z,100762.09
2023-10-03T18:07:00.197Z,100772.81
2023-10-03T18:10:02.159Z,100768.50
2023-10-03T18:13:04.219Z,100758.16
2023-10-03T18:16:06.906Z,100765.13
2023-10-03T18:19:08.906Z,100762.59
2023-10-03T18:22:11.449Z,100751.38
2023-10-03T18:25:15.215Z,100722.38
2023-10-03T18:28:17.170Z,100748.97
2023-10-03T18:31:20.722Z,100756.84
2023-10-03T18:34:22.653Z,100745.31
2023-10-03T18:37:24.544Z,100751.16
2023-10-03T18:40:27.059Z,100754.75
2023-10-03T18:43:28.960Z,100773.88
2023-10-03T18:46:30.994Z,100759.16
2023-10-03T18:49:33.023Z,100766.16
2023-10-03T18:52:38.378Z,100762.06
2023-10-03T18:55:40.678Z,100759.78
2023-10-03T18:58:42.597Z,100707.94
2023-10-03T19:01:49.526Z,100760.56
2023-10-03T19:04:52.098Z,100767.66
2023-10-03T19:07:55.677Z,100756.88
2023-10-03T19:10:57.649Z,100764.22
2023-10-03T19:13:59.651Z,100766.88
2023-10-03T19:17:01.589Z,100755.75
2023-10-03T19:20:05.485Z,100723.97
2023-10-03T19:23:07.340Z,100768.63
2023-10-03T19:26:10.497Z,100778.50
2023-10-03T19:29:12.494Z,100754.19
2023-10-03T19:32:16.536Z,100775.00
2023-10-03T19:35:20.304Z,100761.34
2023-10-03T19:38:22.154Z,100764.69
2023-10-03T19:41:23.985Z,100752.84
2023-10-03T19:44:29.377Z,100764.97
2023-10-03T19:47:31.250Z,100778.31
2023-10-03T19:50:34.772Z,100753.88
2023-10-03T19:53:36.697Z,100727.41
2023-10-03T19:56:38.624Z,100755.31
2023-10-03T19:59:42.649Z,100771.72
2023-10-03T20:02:45.890Z,100696.59
2023-10-03T20:05:48.086Z,100761.88
2023-10-03T20:08:50.538Z,100741.53
2023-10-03T20:11:54.114Z,100735.03
2023-10-03T20:14:56.068Z,100769.56
2023-10-03T20:17:58.419Z,100752.81
2023-10-03T20:21:00.995Z,100693.94
2023-10-03T20:24:02.979Z,100755.28
2023-10-03T20:27:05.281Z,100742.25
2023-10-03T20:30:07.927Z,100741.53
2023-10-03T20:33:09.941Z,100749.38
2023-10-03T20:36:15.488Z,100737.13
2023-10-03T20:39:18.171Z,100710.03
2023-10-03T20:42:20.117Z,100729.78
2023-10-03T20:45:22.232Z,100743.00
2023-10-03T20:48:24.440Z,100732.78
2023-10-03T20:51:26.361Z,100737.81
2023-10-03T20:54:28.344Z,100734.38
2023-10-03T20:57:30.264Z,100737.22
2023-10-03T21:00:33.088Z,100690.44
2023-10-03T21:03:35.012Z,100726.75
2023-10-03T21:06:38.305Z,100728.50
2023-10-03T21:09:40.423Z,100724.97
2023-10-03T21:12:42.408Z,100674.91
2023-10-03T21:15:44.382Z,100728.69
2023-10-03T21:18:46.332Z,100726.84
2023-10-03T21:21:48.656Z,100719.06
2023-10-03T21:24:50.630Z,100699.41
2023-10-03T21:27:52.495Z,100743.34
2023-10-03T21:30:56.130Z,100737.97
2023-10-03T21:33:59.320Z,100744.88
2023-10-03T21:37:01.437Z,100724.97
2023-10-03T21:40:04.067Z,100740.41
2023-10-03T21:43:06.071Z,100740.63
2023-10-03T21:46:09.766Z,100737.63
2023-10-03T21:49:11.721Z,100736.84
2023-10-03T21:52:13.915Z,100740.41
2023-10-03T21:55:15.832Z,100741.56
2023-10-03T21:58:17.723Z,100718.00
2023-10-03T22:01:19.852Z,100704.13
2023-10-03T22:04:24.701Z,100729.00
2023-10-03T22:07:26.561Z,100749.84
2023-10-03T22:10:29.078Z,100741.84
2023-10-03T22:13:32.477Z,100744.59
2023-10-03T22:16:35.016Z,100694.34
2023-10-03T22:19:36.867Z,100729.19
2023-10-03T22:22:39.525Z,100745.00
2023-10-03T22:25:41.398Z,100750.19
2023-10-03T22:28:44.403Z,100744.44
2023-10-03T22:31:46.407Z,100690.78
2023-10-03T22:34:48.304Z,100727.25
2023-10-03T22:38:02.106Z,100718.41
2023-10-03T22:41:09.356Z,100738.59
2023-10-03T22:44:12.441Z,100648.94
2023-10-03T22:47:14.549Z,100730.69
2023-10-03T22:50:16.716Z,100719.59
2023-10-03T22:53:18.622Z,100718.66
2023-10-03T22:56:26.160Z,100728.09
2023-10-03T22:59:28.356Z,100736.88
2023-10-03T23:02:32.357Z,100681.00
2023-10-03T23:05:34.633Z,100739.72
2023-10-03T23:08:36.459Z,100721.84
2023-10-03T23:11:38.322Z,100739.00
2023-10-03T23:14:41.555Z,100713.94
2023-10-03T23:17:43.600Z,100737.25
2023-10-03T23:20:47.500Z,100733.69
2023-10-03T23:23:49.429Z,100729.28
2023-10-03T23:26:51.517Z,100705.84
2023-10-03T23:29:53.370Z,100698.75
2023-10-03T23:32:55.706Z,100710.78
2023-10-03T23:35:57.640Z,100710.97
2023-10-03T23:39:00.492Z,100725.97
2023-10-03T23:42:02.383Z,100724.50
2023-10-03T23:45:05.045Z,100702.72
2023-10-03T23:48:07.319Z,100653.34
2023-10-03T23:51:12.814Z,100712.22
2023-10-03T23:54:18.044Z,100721.25
2023-10-03T23:57:20.378Z,100699.41
